Time;durP1;ratioP1;P1;durP2;ratioP2;P2;SDS_P1;SDS_P2;PMS_P1;PMS_P2;Temp;Humidity;BMP_temperature;BMP_pressure;BME280_temperature;BME280_humidity;BME280_pressure;Samples;Min_cycle;Max_cycle;Signal;HPM_P1;HPM_P2
2021/07/27 00:00:30;;;;;;;6.03;3.47;;;16.90;99.90;;;;;;5033631;28;20085;-80
2021/07/27 00:02:56;;;;;;;5.15;3.28;;;16.90;99.90;;;;;;5033020;28;20495;-80
2021/07/27 00:05:22;;;;;;;4.40;3.13;;;16.90;99.90;;;;;;5034053;28;20057;-79
2021/07/27 00:07:48;;;;;;;5.18;3.47;;;16.90;99.90;;;;;;5033483;28;20056;-80
2021/07/27 00:10:13;;;;;;;5.88;3.33;;;16.80;99.90;;;;;;5032555;28;20083;-80
2021/07/27 00:12:39;;;;;;;5.18;3.30;;;16.80;99.90;;;;;;5029446;28;20040;-79
2021/07/27 00:15:05;;;;;;;3.88;2.90;;;16.80;99.90;;;;;;5032224;28;20502;-80
2021/07/27 00:17:31;;;;;;;4.82;3.15;;;16.70;99.90;;;;;;5033576;28;20025;-80
2021/07/27 00:19:57;;;;;;;6.20;3.33;;;16.70;99.90;;;;;;5033402;28;20529;-79
2021/07/27 00:22:23;;;;;;;4.70;3.50;;;16.60;99.90;;;;;;5033640;28;20113;-79
2021/07/27 00:24:51;;;;;;;3.63;3.05;;;16.50;99.90;;;;;;5031935;28;20076;-80
2021/07/27 00:27:18;;;;;;;3.63;3.20;;;16.50;99.90;;;;;;5031864;28;20029;-80
2021/07/27 00:29:43;;;;;;;4.90;3.42;;;16.50;99.90;;;;;;5033012;28;20376;-80
2021/07/27 00:32:09;;;;;;;3.83;3.15;;;16.50;99.90;;;;;;5032899;28;20041;-79
2021/07/27 00:34:35;;;;;;;4.40;3.65;;;16.50;99.90;;;;;;5033336;28;20051;-79
2021/07/27 00:37:00;;;;;;;6.07;3.20;;;16.50;99.90;;;;;;5032759;28;20044;-80
2021/07/27 00:39:26;;;;;;;5.53;3.30;;;16.50;99.90;;;;;;5033545;28;20412;-80
2021/07/27 00:41:52;;;;;;;6.43;3.42;;;16.50;99.90;;;;;;5032925;28;20067;-80
2021/07/27 00:44:18;;;;;;;5.07;3.38;;;16.50;99.90;;;;;;5031994;28;20033;-79
2021/07/27 00:46:44;;;;;;;3.47;2.95;;;16.40;99.90;;;;;;5029017;28;20034;-80
2021/07/27 00:49:10;;;;;;;4.80;3.47;;;16.40;99.90;;;;;;5032155;28;20395;-80
2021/07/27 00:51:36;;;;;;;4.20;2.92;;;16.40;99.90;;;;;;5031739;28;20032;-80
2021/07/27 00:54:01;;;;;;;5.90;3.50;;;16.40;99.90;;;;;;5032866;28;20026;-80
2021/07/27 00:56:27;;;;;;;3.95;3.17;;;16.40;99.90;;;;;;5015703;28;20037;-79
2021/07/27 00:58:53;;;;;;;6.25;2.92;;;16.40;99.90;;;;;;5030695;28;20046;-79
2021/07/27 01:01:19;;;;;;;4.45;3.45;;;16.40;99.90;;;;;;5025884;28;20515;-79
2021/07/27 01:03:45;;;;;;;3.70;3.20;;;16.30;99.90;;;;;;5031725;28;20033;-79
2021/07/27 01:06:11;;;;;;;7.28;4.18;;;16.30;99.90;;;;;;5031213;28;20499;-79
2021/07/27 01:08:38;;;;;;;6.50;3.78;;;16.40;99.90;;;;;;5033124;28;20081;-80
2021/07/27 01:11:04;;;;;;;5.57;3.67;;;16.30;99.90;;;;;;5031573;28;20029;-79
2021/07/27 01:13:30;;;;;;;5.35;3.38;;;16.30;99.90;;;;;;5033004;28;20124;-79
2021/07/27 01:16:02;;;;;;;6.32;3.38;;;16.20;99.90;;;;;;5032585;28;20492;-80
2021/07/27 01:18:32;;;;;;;4.80;2.80;;;16.20;99.90;;;;;;5031402;28;20037;-80
2021/07/27 01:39:47;;;;;;;6.90;3.85;;;16.10;99.90;;;;;;5031312;28;20030;-79
2021/07/27 01:42:18;;;;;;;13.93;4.40;;;16.10;99.90;;;;;;5031810;28;20029;-80
2021/07/27 01:44:48;;;;;;;6.22;4.32;;;16.10;99.90;;;;;;5032125;28;20057;-79
2021/07/27 01:47:21;;;;;;;5.95;3.50;;;16.00;99.90;;;;;;5027904;28;20039;-80
2021/07/27 01:49:50;;;;;;;10.48;4.05;;;15.90;99.90;;;;;;5028044;28;20105;-80
2021/07/27 01:52:17;;;;;;;8.95;3.80;;;15.90;99.90;;;;;;5030657;28;20029;-79
2021/07/27 01:54:47;;;;;;;5.15;4.20;;;15.90;99.90;;;;;;5032165;28;20505;-80
2021/07/27 01:57:13;;;;;;;5.88;4.05;;;15.80;99.90;;;;;;5031899;28;20033;-80
2021/07/27 01:59:57;;;;;;;8.30;4.03;;;15.80;99.90;;;;;;5031568;28;20045;-79
2021/07/27 02:02:23;;;;;;;6.13;4.03;;;15.70;99.90;;;;;;5032254;28;20029;-79
2021/07/27 02:04:49;;;;;;;5.03;3.95;;;15.70;99.90;;;;;;5032198;28;20049;-79
2021/07/27 02:07:14;;;;;;;6.47;3.88;;;15.70;99.90;;;;;;5028839;28;20087;-80
2021/07/27 02:09:43;;;;;;;4.50;3.40;;;15.70;99.90;;;;;;5029322;28;20029;-79
2021/07/27 02:12:16;;;;;;;7.47;4.10;;;15.70;99.90;;;;;;5022693;28;20038;-79
2021/07/27 02:15:07;;;;;;;5.13;3.70;;;15.70;99.90;;;;;;5030635;28;20048;-79
2021/07/27 02:17:34;;;;;;;6.72;4.32;;;15.70;99.90;;;;;;5030861;28;20025;-79
2021/07/27 02:20:00;;;;;;;6.05;3.83;;;15.70;99.90;;;;;;5030171;28;20037;-79
2021/07/27 02:22:26;;;;;;;5.57;4.07;;;15.60;99.90;;;;;;5031485;28;20030;-79
2021/07/27 02:24:52;;;;;;;5.30;3.97;;;15.70;99.90;;;;;;5031749;28;20041;-79
2021/07/27 02:27:18;;;;;;;5.85;3.55;;;15.60;99.90;;;;;;5030557;28;20030;-79
2021/07/27 02:29:46;;;;;;;4.40;3.33;;;15.60;99.90;;;;;;5031897;28;20361;-80
2021/07/27 02:32:12;;;;;;;6.10;4.13;;;15.60;99.90;;;;;;5031098;28;20431;-79
2021/07/27 02:34:38;;;;;;;6.10;4.28;;;15.60;99.90;;;;;;5031352;28;20053;-79
2021/07/27 02:37:04;;;;;;;11.65;4.60;;;15.60;99.90;;;;;;5014278;28;20037;-80
2021/07/27 02:39:32;;;;;;;6.20;3.67;;;15.60;99.90;;;;;;5031299;28;20123;-80
2021/07/27 02:41:58;;;;;;;8.60;3.58;;;15.50;99.90;;;;;;5031901;28;20109;-79
2021/07/27 02:44:24;;;;;;;6.85;4.20;;;15.50;99.90;;;;;;5013956;28;20120;-79
2021/07/27 02:46:51;;;;;;;6.65;4.15;;;15.50;99.90;;;;;;5013799;28;20400;-79
2021/07/27 02:49:16;;;;;;;5.10;3.97;;;15.50;99.90;;;;;;5031688;28;20476;-79
2021/07/27 02:51:50;;;;;;;6.65;3.65;;;15.40;99.90;;;;;;5031148;28;20029;-80
2021/07/27 02:54:17;;;;;;;5.15;3.85;;;15.40;99.90;;;;;;5031946;28;20029;-79
2021/07/27 02:56:42;;;;;;;6.93;4.30;;;15.30;99.90;;;;;;5029093;28;20045;-79
2021/07/27 02:59:08;;;;;;;5.53;3.72;;;15.30;99.90;;;;;;5030695;28;20033;-79
2021/07/27 03:01:34;;;;;;;5.47;3.97;;;15.20;99.90;;;;;;5034298;28;20489;-79
2021/07/27 03:04:00;;;;;;;3.75;3.22;;;15.20;99.90;;;;;;5032998;28;20061;-79
2021/07/27 03:06:28;;;;;;;12.18;4.32;;;15.20;99.90;;;;;;5034439;28;20129;-79
2021/07/27 03:11:20;;;;;;;4.97;3.78;;;15.20;99.90;;;;;;5034080;28;20041;-79
2021/07/27 03:13:46;;;;;;;11.70;4.05;;;15.20;99.90;;;;;;5029727;28;20044;-79
2021/07/27 03:16:21;;;;;;;4.65;3.78;;;15.20;99.90;;;;;;5034004;28;20488;-79
2021/07/27 03:18:49;;;;;;;6.50;3.55;;;15.20;99.90;;;;;;5028070;28;20033;-79
2021/07/27 03:21:18;;;;;;;8.40;3.90;;;15.10;99.90;;;;;;5032483;28;20361;-79
2021/07/27 03:23:46;;;;;;;4.40;3.70;;;15.10;99.90;;;;;;5032628;28;20034;-79
2021/07/27 03:26:12;;;;;;;4.28;3.20;;;15.10;99.90;;;;;;5034061;28;20033;-79
2021/07/27 03:28:39;;;;;;;6.45;4.00;;;15.10;99.90;;;;;;5033814;28;20021;-79
2021/07/27 03:31:05;;;;;;;7.38;4.10;;;15.10;99.90;;;;;;5032192;28;20109;-79
2021/07/27 03:33:31;;;;;;;5.68;4.07;;;15.00;99.90;;;;;;5033990;28;20497;-79
2021/07/27 03:35:56;;;;;;;6.30;4.18;;;15.00;99.90;;;;;;5033912;28;20037;-80
2021/07/27 03:38:22;;;;;;;4.95;3.80;;;15.00;99.90;;;;;;5033786;28;20029;-79
2021/07/27 03:40:48;;;;;;;6.60;4.40;;;15.00;99.90;;;;;;5033055;28;20098;-79
2021/07/27 03:43:14;;;;;;;5.80;3.90;;;15.00;99.90;;;;;;5032128;28;20567;-79
2021/07/27 03:45:39;;;;;;;3.95;3.55;;;15.00;99.90;;;;;;5033196;28;20034;-79
2021/07/27 03:48:05;;;;;;;5.50;3.70;;;15.00;99.90;;;;;;5029258;28;20033;-79
2021/07/27 03:50:31;;;;;;;4.75;3.47;;;15.00;99.90;;;;;;5033307;28;20033;-79
2021/07/27 03:52:57;;;;;;;4.38;3.47;;;15.10;99.90;;;;;;5031674;28;20029;-79
2021/07/27 03:55:22;;;;;;;4.63;3.20;;;15.10;99.90;;;;;;5033372;28;20399;-79
2021/07/27 03:57:52;;;;;;;3.65;3.25;;;15.10;99.90;;;;;;5033079;28;20109;-79
2021/07/27 04:00:18;;;;;;;6.45;3.60;;;15.10;99.90;;;;;;5033058;28;20032;-79
2021/07/27 04:02:44;;;;;;;5.07;3.55;;;15.20;99.90;;;;;;5030574;28;20459;-79
2021/07/27 04:05:10;;;;;;;4.35;3.05;;;15.20;99.90;;;;;;5032964;28;20026;-79
2021/07/27 04:07:36;;;;;;;7.20;3.47;;;15.20;99.90;;;;;;5032159;28;20025;-79
2021/07/27 04:10:04;;;;;;;6.75;4.22;;;15.30;99.90;;;;;;5032304;28;20480;-79
2021/07/27 04:12:30;;;;;;;4.95;3.33;;;15.30;99.90;;;;;;5031248;28;20060;-79
2021/07/27 04:14:56;;;;;;;4.30;3.25;;;15.30;99.90;;;;;;5028943;28;20064;-79
2021/07/27 04:17:22;;;;;;;3.15;2.85;;;15.30;99.90;;;;;;5031841;28;20073;-79
2021/07/27 04:19:48;;;;;;;4.30;3.72;;;15.30;99.90;;;;;;5031270;28;20030;-79
2021/07/27 04:22:15;;;;;;;6.90;3.90;;;15.40;99.90;;;;;;5031864;28;20052;-79
2021/07/27 04:24:40;;;;;;;6.90;3.85;;;15.40;99.90;;;;;;5031143;28;20049;-79
2021/07/27 04:27:06;;;;;;;7.57;4.00;;;15.40;99.90;;;;;;5031583;28;20025;-79
2021/07/27 04:29:33;;;;;;;5.70;4.20;;;15.50;99.90;;;;;;5029958;28;20112;-80
2021/07/27 04:31:59;;;;;;;11.20;4.22;;;15.50;99.90;;;;;;5029675;28;20065;-79
2021/07/27 04:34:25;;;;;;;5.32;3.60;;;15.40;99.90;;;;;;5039751;28;20085;-79
2021/07/27 04:36:51;;;;;;;8.88;3.72;;;15.40;99.90;;;;;;5027914;28;20029;-80
2021/07/27 04:39:17;;;;;;;6.40;4.20;;;15.50;99.90;;;;;;5028916;28;20130;-79
2021/07/27 04:41:43;;;;;;;8.43;4.03;;;15.50;99.90;;;;;;5032678;28;20077;-79
2021/07/27 04:44:08;;;;;;;5.05;3.53;;;15.50;99.90;;;;;;5032547;28;20030;-79
2021/07/27 04:46:38;;;;;;;9.85;3.85;;;15.50;99.90;;;;;;5031360;28;20495;-79
2021/07/27 04:49:04;;;;;;;7.85;4.43;;;15.60;99.90;;;;;;5031180;28;20026;-79
2021/07/27 04:51:30;;;;;;;4.60;3.60;;;15.60;99.90;;;;;;5032296;28;20029;-79
2021/07/27 04:53:58;;;;;;;6.78;3.15;;;15.70;99.90;;;;;;5032767;28;20048;-79
2021/07/27 04:56:27;;;;;;;4.90;3.22;;;15.70;99.90;;;;;;5030981;28;20128;-79
2021/07/27 04:58:53;;;;;;;7.70;3.75;;;15.70;99.90;;;;;;5028316;28;20103;-79
2021/07/27 05:01:19;;;;;;;5.63;3.90;;;15.80;99.90;;;;;;5031934;28;20069;-79
2021/07/27 05:03:44;;;;;;;4.10;3.20;;;15.80;99.90;;;;;;5026561;28;20029;-79
2021/07/27 05:06:10;;;;;;;4.60;3.28;;;15.90;99.90;;;;;;5031818;28;20484;-79
2021/07/27 05:08:36;;;;;;;4.20;3.10;;;15.90;99.90;;;;;;5031765;28;20033;-79
2021/07/27 05:11:02;;;;;;;4.10;3.45;;;16.00;99.90;;;;;;5031312;28;20057;-79
2021/07/27 05:13:28;;;;;;;5.75;4.00;;;16.00;99.90;;;;;;5027356;28;20554;-79
2021/07/27 05:15:55;;;;;;;5.10;3.58;;;16.10;99.90;;;;;;5032229;28;20472;-79
2021/07/27 05:18:20;;;;;;;5.93;4.60;;;16.10;99.90;;;;;;5030803;28;20038;-79
2021/07/27 05:20:47;;;;;;;6.65;4.82;;;16.20;99.90;;;;;;5030381;28;20123;-79
2021/07/27 05:23:14;;;;;;;6.85;4.35;;;16.20;99.90;;;;;;5031764;28;20507;-79
2021/07/27 05:25:39;;;;;;;7.25;4.60;;;16.20;99.90;;;;;;5031241;28;20511;-79
2021/07/27 05:28:09;;;;;;;5.43;4.40;;;16.30;99.90;;;;;;5030901;28;20109;-79
2021/07/27 05:30:35;;;;;;;5.30;4.45;;;16.40;99.90;;;;;;5031293;28;20079;-78
2021/07/27 05:33:04;;;;;;;5.50;4.13;;;16.50;99.90;;;;;;5031721;28;20065;-79
2021/07/27 05:35:30;;;;;;;6.93;4.65;;;16.50;99.90;;;;;;5031782;28;20074;-78
2021/07/27 05:37:55;;;;;;;7.47;4.65;;;16.60;99.90;;;;;;5031187;28;20120;-79
2021/07/27 05:40:21;;;;;;;4.50;3.97;;;16.80;99.90;;;;;;5025154;28;20124;-79
2021/07/27 05:42:47;;;;;;;7.90;4.43;;;16.80;99.90;;;;;;5028612;28;20036;-78
2021/07/27 05:45:13;;;;;;;5.68;4.32;;;17.10;99.90;;;;;;5029653;28;20033;-78
2021/07/27 05:47:39;;;;;;;4.30;3.75;;;17.30;99.90;;;;;;5028586;28;20022;-79
2021/07/27 05:50:08;;;;;;;6.18;4.13;;;17.60;99.90;;;;;;5028298;28;20021;-79
2021/07/27 05:52:34;;;;;;;7.63;3.92;;;17.80;99.90;;;;;;5028480;28;20017;-79
2021/07/27 05:55:00;;;;;;;6.78;4.75;;;17.90;99.90;;;;;;5027591;28;20025;-79
2021/07/27 05:57:26;;;;;;;5.22;3.95;;;18.10;99.90;;;;;;5025148;28;20091;-79
2021/07/27 05:59:51;;;;;;;4.68;3.55;;;18.20;99.90;;;;;;5026003;28;20037;-79
2021/07/27 06:02:21;;;;;;;5.63;4.90;;;18.30;99.90;;;;;;5027244;28;20037;-78
2021/07/27 06:04:46;;;;;;;3.88;3.45;;;18.60;99.90;;;;;;5029663;28;20345;-79
2021/07/27 06:07:12;;;;;;;4.90;3.47;;;18.90;99.90;;;;;;5030374;28;20445;-79
2021/07/27 06:09:38;;;;;;;4.20;3.22;;;19.10;99.90;;;;;;5031021;28;20116;-79
2021/07/27 06:12:04;;;;;;;5.47;3.67;;;19.20;99.90;;;;;;5031158;28;20029;-79
2021/07/27 06:14:30;;;;;;;3.90;3.03;;;19.40;99.90;;;;;;5030541;28;20038;-78
2021/07/27 06:16:56;;;;;;;4.65;3.17;;;19.80;99.90;;;;;;5023016;28;20037;-79
2021/07/27 06:19:23;;;;;;;4.97;3.42;;;20.20;99.90;;;;;;5026550;28;20029;-78
2021/07/27 06:21:49;;;;;;;4.05;2.83;;;20.60;99.90;;;;;;5025013;28;20120;-78
2021/07/27 06:24:16;;;;;;;3.63;3.28;;;21.00;99.90;;;;;;5024653;28;20124;-79
2021/07/27 06:26:42;;;;;;;5.85;3.72;;;21.30;99.90;;;;;;5027890;28;20029;-78
2021/07/27 06:29:08;;;;;;;4.38;2.92;;;21.30;99.90;;;;;;5024612;28;20436;-79
2021/07/27 06:31:35;;;;;;;3.03;2.72;;;21.30;99.90;;;;;;5027658;28;20609;-79
2021/07/27 06:34:01;;;;;;;3.17;2.88;;;21.60;99.90;;;;;;5029474;28;20067;-79
2021/07/27 06:36:28;;;;;;;3.97;3.00;;;21.50;99.90;;;;;;5029085;28;20075;-79
2021/07/27 06:38:54;;;;;;;6.00;3.08;;;21.70;99.90;;;;;;5031208;28;20045;-79
2021/07/27 06:41:20;;;;;;;4.47;2.53;;;22.10;99.90;;;;;;5028676;28;20407;-79
2021/07/27 06:43:45;;;;;;;2.83;2.35;;;22.40;99.90;;;;;;5032478;28;20022;-78
2021/07/27 06:46:11;;;;;;;3.00;2.50;;;22.80;99.90;;;;;;5030359;28;20490;-79
2021/07/27 06:48:38;;;;;;;3.10;2.47;;;23.20;99.90;;;;;;5032814;28;20026;-79
2021/07/27 06:51:11;;;;;;;4.75;2.28;;;23.50;99.90;;;;;;5032547;28;20492;-80
2021/07/27 06:53:37;;;;;;;3.78;2.53;;;23.80;99.90;;;;;;5026132;28;20159;-81
2021/07/27 06:56:05;;;;;;;1.98;1.73;;;24.10;99.90;;;;;;5029152;28;20092;-81
2021/07/27 06:58:30;;;;;;;4.03;3.15;;;24.50;99.90;;;;;;5036037;28;20040;-80
2021/07/27 07:01:09;;;;;;;4.60;3.45;;;24.00;99.90;;;;;;5031106;28;20026;-81
2021/07/27 07:03:37;;;;;;;3.85;2.78;;;23.60;99.90;;;;;;5024928;28;20053;-80
2021/07/27 07:06:04;;;;;;;3.45;2.25;;;23.80;99.90;;;;;;5027550;28;20444;-80
2021/07/27 07:08:29;;;;;;;2.33;1.75;;;24.10;99.90;;;;;;5029635;28;20087;-81
2021/07/27 07:10:56;;;;;;;3.50;2.72;;;24.50;99.90;;;;;;5024704;28;20674;-83
2021/07/27 07:13:21;;;;;;;4.13;3.10;;;24.40;99.90;;;;;;5031315;28;20065;-81
2021/07/27 07:15:47;;;;;;;2.88;2.28;;;23.20;99.90;;;;;;5024913;28;20144;-82
2021/07/27 07:18:13;;;;;;;3.60;2.47;;;23.30;99.90;;;;;;5033725;28;20509;-81
2021/07/27 07:20:38;;;;;;;4.65;2.65;;;23.70;99.90;;;;;;5050279;28;20595;-82
2021/07/27 07:23:04;;;;;;;2.63;2.28;;;24.00;99.90;;;;;;5031321;28;20026;-81
2021/07/27 07:25:30;;;;;;;2.28;2.08;;;24.30;99.90;;;;;;5032470;28;20026;-81
2021/07/27 07:27:55;;;;;;;2.58;2.10;;;24.60;99.90;;;;;;5033104;28;20105;-82
2021/07/27 07:30:21;;;;;;;2.60;2.17;;;24.90;99.90;;;;;;5029157;28;20037;-81
2021/07/27 07:32:47;;;;;;;2.65;2.22;;;25.00;99.90;;;;;;5028728;28;20033;-82
2021/07/27 07:35:13;;;;;;;2.63;1.98;;;25.30;99.90;;;;;;5032548;28;20041;-82
2021/07/27 07:37:39;;;;;;;2.03;1.83;;;25.60;99.90;;;;;;5024920;28;20340;-81
2021/07/27 07:40:06;;;;;;;2.28;1.80;;;25.60;99.90;;;;;;5032706;28;20029;-81
2021/07/27 07:42:31;;;;;;;2.28;1.70;;;25.70;99.90;;;;;;5026893;28;20366;-81
2021/07/27 07:44:57;;;;;;;5.53;2.20;;;25.70;99.90;;;;;;5030914;28;20029;-81
2021/07/27 07:47:23;;;;;;;2.83;2.00;;;25.70;99.90;;;;;;5030505;28;20396;-80
2021/07/27 07:49:48;;;;;;;3.35;2.03;;;25.40;99.90;;;;;;5039613;28;20030;-81
2021/07/27 07:52:15;;;;;;;2.70;2.10;;;25.40;99.90;;;;;;5029784;28;20473;-81
2021/07/27 07:54:40;;;;;;;2.42;1.88;;;25.30;99.90;;;;;;5033211;28;20030;-81
2021/07/27 07:57:06;;;;;;;2.40;1.83;;;25.20;99.90;;;;;;5022309;28;20471;-83
2021/07/27 07:59:32;;;;;;;2.60;2.00;;;24.60;99.90;;;;;;5026425;28;20061;-81
2021/07/27 08:01:59;;;;;;;2.83;2.10;;;24.40;99.90;;;;;;5027885;28;20038;-81
2021/07/27 08:04:25;;;;;;;2.40;2.10;;;24.40;99.90;;;;;;5030977;28;20078;-81
2021/07/27 08:06:52;;;;;;;2.70;2.40;;;24.20;99.90;;;;;;5033476;28;20025;-81
2021/07/27 08:09:18;;;;;;;2.60;2.40;;;24.20;99.90;;;;;;5046817;28;20060;-81
2021/07/27 08:11:44;;;;;;;2.15;1.95;;;24.20;99.90;;;;;;5026454;28;20060;-79
2021/07/27 08:14:11;;;;;;;2.30;2.13;;;24.20;99.90;;;;;;5031536;28;20033;-80
2021/07/27 08:16:36;;;;;;;2.63;1.80;;;24.40;99.90;;;;;;5011889;28;20152;-80
2021/07/27 08:19:03;;;;;;;2.35;2.15;;;24.70;99.90;;;;;;5026082;28;20515;-80
2021/07/27 08:21:29;;;;;;;3.17;2.58;;;25.20;99.90;;;;;;5026614;28;20464;-80
2021/07/27 08:23:55;;;;;;;3.70;2.10;;;25.60;99.90;;;;;;5030212;28;20060;-80
2021/07/27 08:26:21;;;;;;;2.40;2.20;;;25.90;99.90;;;;;;5029938;28;20112;-80
2021/07/27 08:28:46;;;;;;;3.22;1.60;;;26.20;99.20;;;;;;5030142;28;20128;-80
2021/07/27 08:31:13;;;;;;;2.17;1.83;;;26.20;99.90;;;;;;5027494;28;20407;-81
2021/07/27 08:33:40;;;;;;;2.35;2.15;;;25.90;99.90;;;;;;5014027;28;20029;-80
2021/07/27 08:36:06;;;;;;;3.30;1.95;;;26.10;99.90;;;;;;5031742;28;20156;-80
2021/07/27 08:38:34;;;;;;;2.47;2.10;;;26.20;99.90;;;;;;5031039;28;20560;-80
2021/07/27 08:41:00;;;;;;;2.90;2.30;;;26.30;99.90;;;;;;5028320;28;20059;-80
2021/07/27 08:43:26;;;;;;;1.85;1.67;;;26.30;99.90;;;;;;5028698;28;20032;-80
2021/07/27 08:45:53;;;;;;;1.98;1.85;;;26.30;99.00;;;;;;5028747;28;20392;-80
2021/07/27 08:48:19;;;;;;;2.42;2.08;;;26.30;98.30;;;;;;5030821;28;20035;-80
2021/07/27 08:50:45;;;;;;;3.45;2.28;;;26.30;97.60;;;;;;5029354;28;20021;-80
2021/07/27 08:53:12;;;;;;;3.45;2.63;;;26.30;97.20;;;;;;5030148;28;20057;-80
2021/07/27 08:55:38;;;;;;;4.00;2.15;;;26.20;96.80;;;;;;5023898;28;20026;-80
2021/07/27 08:58:04;;;;;;;3.40;2.13;;;26.00;98.50;;;;;;5029936;28;20072;-79
2021/07/27 09:00:32;;;;;;;2.80;2.08;;;25.90;95.10;;;;;;5029758;28;21443;-81
2021/07/27 09:03:16;;;;;;;2.97;2.22;;;25.80;95.70;;;;;;5028965;28;20025;-80
2021/07/27 09:05:42;;;;;;;2.60;2.15;;;25.80;98.10;;;;;;5028409;28;20100;-81
2021/07/27 09:08:09;;;;;;;4.05;2.35;;;25.60;96.10;;;;;;4998514;28;20034;-80
2021/07/27 09:10:37;;;;;;;2.40;2.20;;;25.40;97.80;;;;;;5026499;28;20033;-80
2021/07/27 09:13:05;;;;;;;2.80;2.50;;;25.40;98.00;;;;;;5026158;28;20490;-80
2021/07/27 09:15:35;;;;;;;2.42;2.00;;;25.40;98.90;;;;;;5026087;28;20397;-80
2021/07/27 09:18:08;;;;;;;4.18;2.28;;;25.30;99.20;;;;;;5026656;28;20029;-80
2021/07/27 09:20:39;;;;;;;2.40;2.20;;;25.30;98.30;;;;;;5024067;28;20033;-80
2021/07/27 09:23:07;;;;;;;3.35;2.35;;;25.20;99.30;;;;;;5025214;28;20053;-81
2021/07/27 09:25:34;;;;;;;3.28;2.40;;;25.10;99.90;;;;;;5025805;28;20732;-80
2021/07/27 09:28:04;;;;;;;2.22;1.95;;;25.10;99.90;;;;;;5025901;28;20092;-79
2021/07/27 09:30:30;;;;;;;2.70;2.35;;;25.10;99.90;;;;;;5024756;28;20100;-81
2021/07/27 09:32:58;;;;;;;2.83;2.22;;;25.00;99.90;;;;;;5030741;28;20029;-81
2021/07/27 09:35:25;;;;;;;3.33;2.35;;;24.90;99.90;;;;;;5022072;28;20025;-80
2021/07/27 09:38:29;;;;;;;3.17;2.20;;;24.80;99.90;;;;;;5028710;28;20039;-81
2021/07/27 09:41:00;;;;;;;3.00;2.15;;;24.80;99.90;;;;;;4949320;28;20122;-80
2021/07/27 09:43:28;;;;;;;4.32;2.38;;;24.80;99.90;;;;;;5017749;28;20091;-81
2021/07/27 09:45:56;;;;;;;3.08;2.22;;;24.80;99.90;;;;;;5026340;28;20333;-80
2021/07/27 09:48:23;;;;;;;3.00;2.20;;;24.60;99.90;;;;;;5028225;28;20041;-81
2021/07/27 09:50:51;;;;;;;3.17;2.30;;;24.40;99.90;;;;;;5024641;28;20107;-82
2021/07/27 09:53:18;;;;;;;3.08;2.38;;;24.20;99.90;;;;;;5023805;28;20033;-83
2021/07/27 09:55:44;;;;;;;2.42;2.22;;;24.00;99.90;;;;;;5023311;28;20037;-81
2021/07/27 09:58:11;;;;;;;3.72;2.75;;;24.00;99.90;;;;;;5023691;28;20124;-80
2021/07/27 10:01:02;;;;;;;3.33;2.42;;;24.00;99.90;;;;;;5024436;28;20029;-81
2021/07/27 10:03:33;;;;;;;2.67;2.40;;;24.00;99.90;;;;;;5021389;28;20037;-80
2021/07/27 10:06:00;;;;;;;2.72;2.40;;;24.00;99.90;;;;;;5022655;28;20029;-80
2021/07/27 10:08:31;;;;;;;3.47;2.70;;;24.00;99.90;;;;;;5027546;28;20526;-82
2021/07/27 10:11:10;;;;;;;2.97;2.53;;;24.00;99.90;;;;;;5019668;28;20048;-80
2021/07/27 10:13:40;;;;;;;3.13;2.65;;;24.00;99.90;;;;;;5021427;28;20083;-81
2021/07/27 10:16:06;;;;;;;3.25;2.88;;;23.90;99.90;;;;;;5028201;28;20028;-81
2021/07/27 10:18:34;;;;;;;2.88;2.40;;;24.00;99.90;;;;;;5024655;28;20446;-81
2021/07/27 10:21:24;;;;;;;4.95;2.90;;;23.80;99.90;;;;;;5029517;28;20100;-83
2021/07/27 10:24:08;;;;;;;4.60;2.58;;;23.80;99.90;;;;;;5000858;28;20033;-82
2021/07/27 10:26:34;;;;;;;4.00;3.05;;;24.00;99.90;;;;;;5017797;28;20044;-81
2021/07/27 10:29:01;;;;;;;4.60;2.58;;;24.10;99.90;;;;;;5023662;28;20025;-82
2021/07/27 10:31:31;;;;;;;3.60;2.53;;;24.10;99.90;;;;;;5035041;28;20043;-81
2021/07/27 10:33:57;;;;;;;2.70;2.50;;;24.10;99.90;;;;;;5029728;28;20268;-79
2021/07/27 10:36:27;;;;;;;5.13;3.08;;;24.10;99.90;;;;;;5025312;28;20041;-80
2021/07/27 10:39:08;;;;;;;3.95;2.60;;;24.10;99.90;;;;;;5023032;28;20040;-81
2021/07/27 10:41:36;;;;;;;3.30;2.88;;;24.20;99.90;;;;;;5023514;28;20043;-81
2021/07/27 10:44:09;;;;;;;2.70;2.50;;;24.10;99.90;;;;;;5025623;28;20045;-80
2021/07/27 10:46:37;;;;;;;4.43;2.78;;;24.10;99.90;;;;;;5018442;28;20062;-79
2021/07/27 10:49:03;;;;;;;2.60;2.40;;;24.20;99.90;;;;;;5019867;28;20480;-79
2021/07/27 10:51:35;;;;;;;8.90;3.22;;;24.20;99.90;;;;;;5026632;28;20037;-81
2021/07/27 10:54:01;;;;;;;3.17;2.53;;;24.30;99.90;;;;;;5022892;28;20736;-80
2021/07/27 10:56:31;;;;;;;3.55;2.60;;;24.40;99.90;;;;;;5023690;28;20506;-79
2021/07/27 10:58:58;;;;;;;2.97;2.53;;;24.50;99.90;;;;;;5020652;28;20033;-81
2021/07/27 11:01:29;;;;;;;3.30;2.97;;;24.60;99.90;;;;;;5037966;28;20030;-79
2021/07/27 11:03:56;;;;;;;5.60;2.63;;;24.70;99.90;;;;;;5021259;28;20038;-80
2021/07/27 11:06:22;;;;;;;3.25;2.83;;;24.90;99.90;;;;;;5023063;28;20492;-80
2021/07/27 11:08:47;;;;;;;5.57;3.45;;;24.90;95.60;;;;;;5023681;28;20029;-81
2021/07/27 11:11:17;;;;;;;3.38;2.50;;;24.80;98.40;;;;;;5026168;28;20022;-80
2021/07/27 11:13:55;;;;;;;2.75;2.53;;;24.70;99.90;;;;;;5023954;28;20076;-81
2021/07/27 11:16:21;;;;;;;2.67;2.35;;;24.70;99.90;;;;;;5022868;28;20026;-81
2021/07/27 11:18:47;;;;;;;3.00;2.70;;;24.80;99.90;;;;;;5023938;28;20030;-80
2021/07/27 11:21:13;;;;;;;4.07;2.90;;;24.90;99.90;;;;;;5027144;28;20041;-80
2021/07/27 11:23:40;;;;;;;3.30;2.80;;;24.90;99.90;;;;;;5023508;28;20451;-80
2021/07/27 11:26:06;;;;;;;2.83;2.47;;;25.00;99.90;;;;;;5030341;28;20021;-81
2021/07/27 11:28:36;;;;;;;3.10;2.58;;;25.00;99.90;;;;;;5024752;28;20463;-80
2021/07/27 11:31:14;;;;;;;4.05;2.97;;;25.00;99.90;;;;;;5029765;28;20010;-80
2021/07/27 11:33:47;;;;;;;4.00;2.78;;;25.00;99.90;;;;;;5028349;28;20720;-81
2021/07/27 11:36:20;;;;;;;3.40;3.00;;;25.10;99.90;;;;;;5026295;28;20083;-80
2021/07/27 11:38:45;;;;;;;3.30;2.72;;;25.10;99.90;;;;;;5021754;28;20018;-80
2021/07/27 11:41:12;;;;;;;3.25;2.83;;;25.10;99.90;;;;;;5025981;28;20080;-81
2021/07/27 11:43:41;;;;;;;4.35;3.00;;;25.10;99.90;;;;;;5030813;28;20033;-81
2021/07/27 11:46:11;;;;;;;3.30;2.42;;;25.20;99.90;;;;;;5023157;28;20033;-79
2021/07/27 11:48:38;;;;;;;4.60;3.50;;;25.30;99.90;;;;;;5026368;28;20034;-80
2021/07/27 11:51:04;;;;;;;3.95;3.05;;;25.50;99.90;;;;;;5026641;28;20100;-80
2021/07/27 11:53:39;;;;;;;4.20;2.88;;;25.60;99.90;;;;;;5025621;28;20053;-80
2021/07/27 11:56:15;;;;;;;4.65;2.88;;;25.80;99.90;;;;;;5019620;28;20044;-80
2021/07/27 11:58:42;;;;;;;3.28;2.97;;;26.00;98.50;;;;;;5020570;28;20049;-79
2021/07/27 12:01:08;;;;;;;4.30;2.92;;;26.00;99.50;;;;;;5016317;28;20164;-82
2021/07/27 12:03:34;;;;;;;3.22;2.92;;;26.00;93.60;;;;;;5016735;28;20529;-80
2021/07/27 12:06:15;;;;;;;3.47;2.60;;;26.00;97.10;;;;;;5043394;28;20064;-80
2021/07/27 12:08:42;;;;;;;3.15;2.45;;;25.90;97.20;;;;;;5022684;28;20025;-80
2021/07/27 12:11:08;;;;;;;3.53;2.95;;;25.80;96.60;;;;;;5025789;28;20093;-83
2021/07/27 12:13:34;;;;;;;3.15;2.63;;;25.40;94.90;;;;;;5029877;28;20052;-81
2021/07/27 12:16:00;;;;;;;5.47;2.72;;;25.30;98.00;;;;;;5028237;28;20029;-80
2021/07/27 12:18:26;;;;;;;4.70;2.95;;;25.30;99.90;;;;;;5025655;28;20021;-81
2021/07/27 12:20:52;;;;;;;3.35;2.72;;;25.30;98.70;;;;;;5026771;28;20110;-80
2021/07/27 12:23:20;;;;;;;5.00;3.40;;;25.60;99.50;;;;;;5028581;28;20024;-80
2021/07/27 12:25:49;;;;;;;3.80;2.78;;;25.80;99.90;;;;;;5017071;28;20096;-81
2021/07/27 12:28:15;;;;;;;2.92;2.60;;;26.10;97.30;;;;;;5016751;28;20041;-80
2021/07/27 12:30:41;;;;;;;4.00;2.75;;;26.20;99.10;;;;;;5026909;28;20079;-80
2021/07/27 12:33:07;;;;;;;3.03;2.72;;;26.30;94.60;;;;;;5007973;28;20492;-79
2021/07/27 12:35:33;;;;;;;4.32;2.72;;;26.30;98.30;;;;;;5027635;28;20121;-81
2021/07/27 12:37:59;;;;;;;3.53;2.80;;;26.30;95.00;;;;;;5026322;28;20079;-80
2021/07/27 12:40:26;;;;;;;5.05;3.10;;;26.10;98.20;;;;;;5025635;28;20033;-80
2021/07/27 12:42:51;;;;;;;3.03;2.65;;;25.90;93.10;;;;;;5025709;28;20038;-79
2021/07/27 12:45:17;;;;;;;3.30;2.55;;;25.80;98.50;;;;;;5021877;28;20025;-81
2021/07/27 12:47:43;;;;;;;3.70;2.88;;;25.80;99.80;;;;;;5033097;28;20622;-80
2021/07/27 12:50:09;;;;;;;3.65;3.00;;;25.70;96.60;;;;;;5006236;28;20653;-80
2021/07/27 12:52:35;;;;;;;4.57;2.97;;;25.60;97.40;;;;;;5028045;28;20044;-80
2021/07/27 12:55:02;;;;;;;3.33;3.00;;;25.50;99.50;;;;;;5026183;28;20124;-80
2021/07/27 12:57:28;;;;;;;3.67;2.58;;;25.50;99.90;;;;;;5028307;28;20041;-81
2021/07/27 12:59:53;;;;;;;3.40;2.80;;;25.50;99.00;;;;;;5028096;28;20044;-81
2021/07/27 13:02:22;;;;;;;3.88;3.08;;;25.40;99.50;;;;;;5029504;28;20093;-80
2021/07/27 13:04:48;;;;;;;2.95;2.65;;;25.40;99.30;;;;;;5029788;28;20514;-82
2021/07/27 13:07:17;;;;;;;3.35;3.05;;;25.30;99.80;;;;;;5029098;28;20069;-80